sensor_id;sensor_type;location;lat;lon;timestamp;temperature;humidity
45619;DHT22;31343;47.520;19.144;2022-07-01T00:00:37;27.50;96.90
45619;DHT22;31343;47.520;19.144;2022-07-01T00:03:03;27.40;97.10
45619;DHT22;31343;47.520;19.144;2022-07-01T00:05:29;27.40;97.10
45619;DHT22;31343;47.520;19.144;2022-07-01T00:07:56;27.40;97.10
45619;DHT22;31343;47.520;19.144;2022-07-01T00:10:22;27.40;97.40
45619;DHT22;31343;47.520;19.144;2022-07-01T00:12:48;27.30;97.60
45619;DHT22;31343;47.520;19.144;2022-07-01T00:15:13;27.30;97.80
45619;DHT22;31343;47.520;19.144;2022-07-01T00:17:39;27.30;97.80
45619;DHT22;31343;47.520;19.144;2022-07-01T00:20:06;27.20;97.90
45619;DHT22;31343;47.520;19.144;2022-07-01T00:22:33;27.20;98.00
45619;DHT22;31343;47.520;19.144;2022-07-01T00:25:00;27.20;98.10
45619;DHT22;31343;47.520;19.144;2022-07-01T00:27:26;27.10;98.10
45619;DHT22;31343;47.520;19.144;2022-07-01T00:29:52;27.20;98.10
45619;DHT22;31343;47.520;19.144;2022-07-01T00:32:17;27.20;98.30
45619;DHT22;31343;47.520;19.144;2022-07-01T00:34:43;27.20;98.50
45619;DHT22;31343;47.520;19.144;2022-07-01T00:37:09;27.20;98.60
45619;DHT22;31343;47.520;19.144;2022-07-01T00:39:35;27.10;98.70
45619;DHT22;31343;47.520;19.144;2022-07-01T00:42:03;27.10;98.70
45619;DHT22;31343;47.520;19.144;2022-07-01T00:44:30;27.10;98.90
45619;DHT22;31343;47.520;19.144;2022-07-01T00:46:59;27.10;99.00
45619;DHT22;31343;47.520;19.144;2022-07-01T00:49:25;27.00;99.00
45619;DHT22;31343;47.520;19.144;2022-07-01T00:51:53;27.00;99.20
45619;DHT22;31343;47.520;19.144;2022-07-01T00:54:19;26.90;99.30
45619;DHT22;31343;47.520;19.144;2022-07-01T00:56:46;26.90;99.50
45619;DHT22;31343;47.520;19.144;2022-07-01T00:59:12;26.70;99.80
45619;DHT22;31343;47.520;19.144;2022-07-01T01:01:39;26.70;99.90
45619;DHT22;31343;47.520;19.144;2022-07-01T01:04:05;26.60;99.90
45619;DHT22;31343;47.520;19.144;2022-07-01T01:06:30;26.50;99.90
45619;DHT22;31343;47.520;19.144;2022-07-01T01:08:56;26.50;99.90
45619;DHT22;31343;47.520;19.144;2022-07-01T01:11:22;26.50;99.90
45619;DHT22;31343;47.520;19.144;2022-07-01T01:13:49;26.50;99.90
45619;DHT22;31343;47.520;19.144;2022-07-01T01:16:19;26.50;99.90
45619;DHT22;31343;47.520;19.144;2022-07-01T01:18:45;26.40;99.90
45619;DHT22;31343;47.520;19.144;2022-07-01T01:21:11;26.40;99.90
45619;DHT22;31343;47.520;19.144;2022-07-01T01:23:38;26.30;99.90
45619;DHT22;31343;47.520;19.144;2022-07-01T01:26:04;26.20;99.90
45619;DHT22;31343;47.520;19.144;2022-07-01T01:28:39;26.20;99.90
45619;DHT22;31343;47.520;19.144;2022-07-01T01:31:05;26.20;99.90
45619;DHT22;31343;47.520;19.144;2022-07-01T01:33:31;26.20;99.90
45619;DHT22;31343;47.520;19.144;2022-07-01T01:35:56;26.20;99.90
45619;DHT22;31343;47.520;19.144;2022-07-01T01:38:22;26.10;99.90
45619;DHT22;31343;47.520;19.144;2022-07-01T01:40:48;26.10;99.90
45619;DHT22;31343;47.520;19.144;2022-07-01T01:43:15;25.90;99.90
45619;DHT22;31343;47.520;19.144;2022-07-01T01:45:41;25.90;99.90
45619;DHT22;31343;47.520;19.144;2022-07-01T01:48:07;25.90;99.90
45619;DHT22;31343;47.520;19.144;2022-07-01T01:50:33;25.90;99.90
45619;DHT22;31343;47.520;19.144;2022-07-01T01:52:58;25.90;99.90
45619;DHT22;31343;47.520;19.144;2022-07-01T01:55:24;25.80;99.90
45619;DHT22;31343;47.520;19.144;2022-07-01T01:57:50;25.70;99.90
45619;DHT22;31343;47.520;19.144;2022-07-01T02:00:15;25.70;99.90
45619;DHT22;31343;47.520;19.144;2022-07-01T02:02:41;25.70;99.90
45619;DHT22;31343;47.520;19.144;2022-07-01T02:05:09;25.70;99.90
45619;DHT22;31343;47.520;19.144;2022-07-01T02:07:35;25.70;99.90
45619;DHT22;31343;47.520;19.144;2022-07-01T02:10:01;25.60;99.90
45619;DHT22;31343;47.520;19.144;2022-07-01T02:12:27;25.40;99.90
45619;DHT22;31343;47.520;19.144;2022-07-01T02:14:53;25.40;99.90
45619;DHT22;31343;47.520;19.144;2022-07-01T02:17:19;25.40;99.90
45619;DHT22;31343;47.520;19.144;2022-07-01T02:19:44;25.30;99.90
45619;DHT22;31343;47.520;19.144;2022-07-01T02:22:10;25.30;99.90
45619;DHT22;31343;47.520;19.144;2022-07-01T02:24:36;25.40;99.90
45619;DHT22;31343;47.520;19.144;2022-07-01T02:27:01;25.40;99.90
45619;DHT22;31343;47.520;19.144;2022-07-01T02:29:27;25.30;99.90
45619;DHT22;31343;47.520;19.144;2022-07-01T02:31:53;25.20;99.90
45619;DHT22;31343;47.520;19.144;2022-07-01T02:34:18;25.10;99.90
45619;DHT22;31343;47.520;19.144;2022-07-01T02:36:44;25.00;99.90
45619;DHT22;31343;47.520;19.144;2022-07-01T02:39:10;25.10;99.90
45619;DHT22;31343;47.520;19.144;2022-07-01T02:41:35;25.10;99.90
45619;DHT22;31343;47.520;19.144;2022-07-01T02:44:21;25.10;99.90
45619;DHT22;31343;47.520;19.144;2022-07-01T02:46:47;24.90;99.90
45619;DHT22;31343;47.520;19.144;2022-07-01T02:49:12;24.80;99.90
45619;DHT22;31343;47.520;19.144;2022-07-01T02:51:38;24.70;99.90
45619;DHT22;31343;47.520;19.144;2022-07-01T02:54:03;24.70;99.90
45619;DHT22;31343;47.520;19.144;2022-07-01T02:56:30;24.70;99.90
45619;DHT22;31343;47.520;19.144;2022-07-01T02:58:56;24.60;99.90
45619;DHT22;31343;47.520;19.144;2022-07-01T03:01:21;24.60;99.90
45619;DHT22;31343;47.520;19.144;2022-07-01T03:03:48;24.70;99.90
45619;DHT22;31343;47.520;19.144;2022-07-01T03:06:14;24.70;99.90
45619;DHT22;31343;47.520;19.144;2022-07-01T03:08:39;24.70;99.90
45619;DHT22;31343;47.520;19.144;2022-07-01T03:11:05;24.80;99.90
45619;DHT22;31343;47.520;19.144;2022-07-01T03:13:31;24.80;99.90
45619;DHT22;31343;47.520;19.144;2022-07-01T03:15:56;24.70;99.90
45619;DHT22;31343;47.520;19.144;2022-07-01T03:18:22;24.70;99.90
45619;DHT22;31343;47.520;19.144;2022-07-01T03:20:48;24.60;99.90
45619;DHT22;31343;47.520;19.144;2022-07-01T03:23:16;24.60;99.90
45619;DHT22;31343;47.520;19.144;2022-07-01T03:25:42;24.40;99.90
45619;DHT22;31343;47.520;19.144;2022-07-01T03:28:09;24.50;99.90
45619;DHT22;31343;47.520;19.144;2022-07-01T03:30:34;24.60;99.90
45619;DHT22;31343;47.520;19.144;2022-07-01T03:33:00;24.40;99.90
45619;DHT22;31343;47.520;19.144;2022-07-01T03:35:26;24.50;99.90
45619;DHT22;31343;47.520;19.144;2022-07-01T03:38:11;24.40;99.90
45619;DHT22;31343;47.520;19.144;2022-07-01T03:40:37;24.50;99.90
45619;DHT22;31343;47.520;19.144;2022-07-01T03:43:03;24.60;99.90
45619;DHT22;31343;47.520;19.144;2022-07-01T03:45:29;24.70;99.90
45619;DHT22;31343;47.520;19.144;2022-07-01T03:47:55;24.80;99.90
45619;DHT22;31343;47.520;19.144;2022-07-01T03:50:22;24.70;99.90
45619;DHT22;31343;47.520;19.144;2022-07-01T03:52:48;24.80;99.90
45619;DHT22;31343;47.520;19.144;2022-07-01T03:55:14;24.90;99.90
45619;DHT22;31343;47.520;19.144;2022-07-01T03:57:42;25.00;99.90
45619;DHT22;31343;47.520;19.144;2022-07-01T04:00:08;25.00;99.90
45619;DHT22;31343;47.520;19.144;2022-07-01T04:02:34;25.00;99.90
45619;DHT22;31343;47.520;19.144;2022-07-01T04:04:59;24.90;99.90
45619;DHT22;31343;47.520;19.144;2022-07-01T04:07:25;24.90;99.90
45619;DHT22;31343;47.520;19.144;2022-07-01T04:09:51;24.90;99.90
45619;DHT22;31343;47.520;19.144;2022-07-01T04:12:17;25.00;99.90
45619;DHT22;31343;47.520;19.144;2022-07-01T04:14:44;25.20;99.90
45619;DHT22;31343;47.520;19.144;2022-07-01T04:17:10;25.30;99.90
45619;DHT22;31343;47.520;19.144;2022-07-01T04:19:35;25.20;99.90
45619;DHT22;31343;47.520;19.144;2022-07-01T04:22:02;25.30;99.90
45619;DHT22;31343;47.520;19.144;2022-07-01T04:24:46;25.40;99.90
45619;DHT22;31343;47.520;19.144;2022-07-01T04:27:12;25.20;99.90
45619;DHT22;31343;47.520;19.144;2022-07-01T04:29:38;25.20;99.90
45619;DHT22;31343;47.520;19.144;2022-07-01T04:32:05;25.30;99.90
45619;DHT22;31343;47.520;19.144;2022-07-01T04:34:31;25.40;99.90
45619;DHT22;31343;47.520;19.144;2022-07-01T04:36:57;25.50;99.90
45619;DHT22;31343;47.520;19.144;2022-07-01T04:39:22;25.70;99.90
45619;DHT22;31343;47.520;19.144;2022-07-01T04:41:48;25.70;99.90
45619;DHT22;31343;47.520;19.144;2022-07-01T04:44:31;25.80;99.90
45619;DHT22;31343;47.520;19.144;2022-07-01T04:46:57;26.00;99.90
45619;DHT22;31343;47.520;19.144;2022-07-01T04:49:23;26.00;99.90
45619;DHT22;31343;47.520;19.144;2022-07-01T04:51:50;26.00;99.90
45619;DHT22;31343;47.520;19.144;2022-07-01T04:54:15;25.90;99.90
45619;DHT22;31343;47.520;19.144;2022-07-01T04:56:41;26.00;99.90
45619;DHT22;31343;47.520;19.144;2022-07-01T04:59:07;26.10;99.90
45619;DHT22;31343;47.520;19.144;2022-07-01T05:01:33;26.30;99.90
45619;DHT22;31343;47.520;19.144;2022-07-01T05:03:59;26.30;99.90
45619;DHT22;31343;47.520;19.144;2022-07-01T05:06:25;26.40;99.90
45619;DHT22;31343;47.520;19.144;2022-07-01T05:08:51;26.50;99.90
45619;DHT22;31343;47.520;19.144;2022-07-01T05:11:16;26.70;99.90
45619;DHT22;31343;47.520;19.144;2022-07-01T05:13:43;26.80;99.90
45619;DHT22;31343;47.520;19.144;2022-07-01T05:16:09;27.00;99.90
45619;DHT22;31343;47.520;19.144;2022-07-01T05:18:38;27.20;99.90
45619;DHT22;31343;47.520;19.144;2022-07-01T05:21:24;27.30;99.90
45619;DHT22;31343;47.520;19.144;2022-07-01T05:24:09;27.60;99.90
45619;DHT22;31343;47.520;19.144;2022-07-01T05:26:35;27.70;99.90
45619;DHT22;31343;47.520;19.144;2022-07-01T05:29:01;28.00;99.90
45619;DHT22;31343;47.520;19.144;2022-07-01T05:31:26;28.30;99.90
45619;DHT22;31343;47.520;19.144;2022-07-01T05:33:53;28.70;99.90
45619;DHT22;31343;47.520;19.144;2022-07-01T05:36:19;29.00;99.50
45619;DHT22;31343;47.520;19.144;2022-07-01T05:38:45;29.20;99.20
45619;DHT22;31343;47.520;19.144;2022-07-01T05:41:11;30.10;98.20
45619;DHT22;31343;47.520;19.144;2022-07-01T05:43:37;30.70;97.10
45619;DHT22;31343;47.520;19.144;2022-07-01T05:46:03;31.70;95.90
45619;DHT22;31343;47.520;19.144;2022-07-01T05:48:28;31.90;94.80
45619;DHT22;31343;47.520;19.144;2022-07-01T05:50:54;32.50;94.30
45619;DHT22;31343;47.520;19.144;2022-07-01T05:53:20;33.00;93.30
45619;DHT22;31343;47.520;19.144;2022-07-01T05:55:46;33.00;92.40
45619;DHT22;31343;47.520;19.144;2022-07-01T05:58:12;33.00;92.50
45619;DHT22;31343;47.520;19.144;2022-07-01T06:00:39;32.80;92.50
45619;DHT22;31343;47.520;19.144;2022-07-01T06:03:16;32.50;92.80
45619;DHT22;31343;47.520;19.144;2022-07-01T06:05:42;32.80;92.90
45619;DHT22;31343;47.520;19.144;2022-07-01T06:08:08;33.00;92.60
45619;DHT22;31343;47.520;19.144;2022-07-01T06:10:34;33.50;91.90
45619;DHT22;31343;47.520;19.144;2022-07-01T06:13:01;34.00;91.40
45619;DHT22;31343;47.520;19.144;2022-07-01T06:15:28;34.30;90.90
45619;DHT22;31343;47.520;19.144;2022-07-01T06:17:54;35.00;90.30
45619;DHT22;31343;47.520;19.144;2022-07-01T06:20:21;34.70;90.10
45619;DHT22;31343;47.520;19.144;2022-07-01T06:22:47;35.00;88.70
45619;DHT22;31343;47.520;19.144;2022-07-01T06:25:13;36.00;87.10
45619;DHT22;31343;47.520;19.144;2022-07-01T06:27:40;35.80;85.90
45619;DHT22;31343;47.520;19.144;2022-07-01T06:30:06;36.30;84.80
45619;DHT22;31343;47.520;19.144;2022-07-01T06:32:32;36.10;84.30
45619;DHT22;31343;47.520;19.144;2022-07-01T06:34:58;36.10;83.80
45619;DHT22;31343;47.520;19.144;2022-07-01T06:37:23;35.60;84.30
45619;DHT22;31343;47.520;19.144;2022-07-01T06:39:49;36.00;83.80
45619;DHT22;31343;47.520;19.144;2022-07-01T06:42:15;36.00;84.30
45619;DHT22;31343;47.520;19.144;2022-07-01T06:44:41;36.40;83.30
45619;DHT22;31343;47.520;19.144;2022-07-01T06:47:07;36.40;82.80
45619;DHT22;31343;47.520;19.144;2022-07-01T06:49:32;35.50;82.90
45619;DHT22;31343;47.520;19.144;2022-07-01T06:51:58;35.20;83.40
45619;DHT22;31343;47.520;19.144;2022-07-01T06:54:24;35.10;83.90
45619;DHT22;31343;47.520;19.144;2022-07-01T06:56:50;34.70;84.10
45619;DHT22;31343;47.520;19.144;2022-07-01T06:59:15;34.90;84.00
45619;DHT22;31343;47.520;19.144;2022-07-01T07:01:41;35.00;84.20
45619;DHT22;31343;47.520;19.144;2022-07-01T07:04:07;35.10;83.90
45619;DHT22;31343;47.520;19.144;2022-07-01T07:06:33;34.80;83.40
45619;DHT22;31343;47.520;19.144;2022-07-01T07:08:59;34.70;84.20
45619;DHT22;31343;47.520;19.144;2022-07-01T07:11:25;35.10;83.00
45619;DHT22;31343;47.520;19.144;2022-07-01T07:13:53;35.30;82.40
45619;DHT22;31343;47.520;19.144;2022-07-01T07:16:19;35.70;82.70
45619;DHT22;31343;47.520;19.144;2022-07-01T07:18:50;35.80;81.90
45619;DHT22;31343;47.520;19.144;2022-07-01T07:21:17;35.60;81.90
45619;DHT22;31343;47.520;19.144;2022-07-01T07:23:43;35.40;81.70
45619;DHT22;31343;47.520;19.144;2022-07-01T07:26:09;34.90;82.90
45619;DHT22;31343;47.520;19.144;2022-07-01T07:28:35;34.80;82.70
45619;DHT22;31343;47.520;19.144;2022-07-01T07:31:01;34.20;83.80
45619;DHT22;31343;47.520;19.144;2022-07-01T07:33:27;33.90;83.60
45619;DHT22;31343;47.520;19.144;2022-07-01T07:35:52;33.80;85.50
45619;DHT22;31343;47.520;19.144;2022-07-01T07:38:19;34.20;84.10
45619;DHT22;31343;47.520;19.144;2022-07-01T07:40:45;34.70;82.00
45619;DHT22;31343;47.520;19.144;2022-07-01T07:43:11;34.30;82.80
45619;DHT22;31343;47.520;19.144;2022-07-01T07:45:37;34.60;83.40
45619;DHT22;31343;47.520;19.144;2022-07-01T07:48:03;35.10;82.40
45619;DHT22;31343;47.520;19.144;2022-07-01T07:50:31;35.50;81.30
45619;DHT22;31343;47.520;19.144;2022-07-01T07:52:57;36.30;80.10
45619;DHT22;31343;47.520;19.144;2022-07-01T07:55:23;36.60;79.60
45619;DHT22;31343;47.520;19.144;2022-07-01T07:57:49;36.80;78.50
45619;DHT22;31343;47.520;19.144;2022-07-01T08:00:15;36.10;78.60
45619;DHT22;31343;47.520;19.144;2022-07-01T08:02:41;36.30;79.10
45619;DHT22;31343;47.520;19.144;2022-07-01T08:05:09;36.20;78.40
45619;DHT22;31343;47.520;19.144;2022-07-01T08:07:40;35.50;79.00
45619;DHT22;31343;47.520;19.144;2022-07-01T08:10:09;35.30;79.70
45619;DHT22;31343;47.520;19.144;2022-07-01T08:12:35;35.30;79.00
45619;DHT22;31343;47.520;19.144;2022-07-01T08:15:01;35.30;78.70
45619;DHT22;31343;47.520;19.144;2022-07-01T08:17:27;35.80;78.30
45619;DHT22;31343;47.520;19.144;2022-07-01T08:19:52;36.60;77.60
45619;DHT22;31343;47.520;19.144;2022-07-01T08:22:18;37.40;75.00
45619;DHT22;31343;47.520;19.144;2022-07-01T08:24:45;36.40;76.60
45619;DHT22;31343;47.520;19.144;2022-07-01T08:27:11;36.10;76.90
45619;DHT22;31343;47.520;19.144;2022-07-01T08:29:38;36.30;76.90
45619;DHT22;31343;47.520;19.144;2022-07-01T08:32:05;37.10;74.30
45619;DHT22;31343;47.520;19.144;2022-07-01T08:34:30;35.90;76.20
45619;DHT22;31343;47.520;19.144;2022-07-01T08:36:56;35.40;76.70
45619;DHT22;31343;47.520;19.144;2022-07-01T08:39:22;35.70;77.00
45619;DHT22;31343;47.520;19.144;2022-07-01T08:41:48;36.40;75.50
45619;DHT22;31343;47.520;19.144;2022-07-01T08:44:14;36.40;75.40
45619;DHT22;31343;47.520;19.144;2022-07-01T08:46:40;35.90;76.60
45619;DHT22;31343;47.520;19.144;2022-07-01T08:49:06;36.20;75.60
45619;DHT22;31343;47.520;19.144;2022-07-01T08:51:32;36.10;75.10
45619;DHT22;31343;47.520;19.144;2022-07-01T08:53:58;36.00;73.90
45619;DHT22;31343;47.520;19.144;2022-07-01T08:56:24;35.50;75.60
45619;DHT22;31343;47.520;19.144;2022-07-01T08:59:12;35.50;74.70
45619;DHT22;31343;47.520;19.144;2022-07-01T09:01:39;36.20;74.40
45619;DHT22;31343;47.520;19.144;2022-07-01T09:04:19;36.00;75.20
45619;DHT22;31343;47.520;19.144;2022-07-01T09:06:46;35.50;77.00
45619;DHT22;31343;47.520;19.144;2022-07-01T09:09:21;36.10;75.60
45619;DHT22;31343;47.520;19.144;2022-07-01T09:11:53;36.30;74.50
45619;DHT22;31343;47.520;19.144;2022-07-01T09:14:27;36.80;74.60
45619;DHT22;31343;47.520;19.144;2022-07-01T09:17:04;36.90;73.90
45619;DHT22;31343;47.520;19.144;2022-07-01T09:19:36;36.40;72.90
45619;DHT22;31343;47.520;19.144;2022-07-01T09:22:02;36.50;73.00
45619;DHT22;31343;47.520;19.144;2022-07-01T09:24:38;36.80;72.60
45619;DHT22;31343;47.520;19.144;2022-07-01T09:27:06;36.80;72.60
45619;DHT22;31343;47.520;19.144;2022-07-01T09:29:37;37.20;71.80
45619;DHT22;31343;47.520;19.144;2022-07-01T09:32:05;37.30;71.10
45619;DHT22;31343;47.520;19.144;2022-07-01T09:34:43;37.00;71.60
45619;DHT22;31343;47.520;19.144;2022-07-01T09:37:12;37.10;71.50
45619;DHT22;31343;47.520;19.144;2022-07-01T09:39:45;36.80;72.60
45619;DHT22;31343;47.520;19.144;2022-07-01T09:42:11;36.50;73.20
45619;DHT22;31343;47.520;19.144;2022-07-01T09:44:54;36.30;73.20
45619;DHT22;31343;47.520;19.144;2022-07-01T09:47:25;36.50;74.20
45619;DHT22;31343;47.520;19.144;2022-07-01T09:49:53;36.80;72.80
45619;DHT22;31343;47.520;19.144;2022-07-01T09:52:20;37.10;72.20
45619;DHT22;31343;47.520;19.144;2022-07-01T09:54:47;36.40;71.50
45619;DHT22;31343;47.520;19.144;2022-07-01T09:57:14;35.90;72.80
45619;DHT22;31343;47.520;19.144;2022-07-01T09:59:40;36.10;73.10
45619;DHT22;31343;47.520;19.144;2022-07-01T10:02:08;36.20;72.00
45619;DHT22;31343;47.520;19.144;2022-07-01T10:04:40;36.10;72.10
45619;DHT22;31343;47.520;19.144;2022-07-01T10:10:07;36.20;71.50
45619;DHT22;31343;47.520;19.144;2022-07-01T10:12:46;36.20;71.60
45619;DHT22;31343;47.520;19.144;2022-07-01T10:15:17;36.30;70.80
45619;DHT22;31343;47.520;19.144;2022-07-01T10:17:51;36.40;70.40
45619;DHT22;31343;47.520;19.144;2022-07-01T10:20:23;36.60;69.00
45619;DHT22;31343;47.520;19.144;2022-07-01T10:22:50;36.30;70.40
45619;DHT22;31343;47.520;19.144;2022-07-01T10:25:34;36.00;70.10
45619;DHT22;31343;47.520;19.144;2022-07-01T10:31:09;36.20;70.10
45619;DHT22;31343;47.520;19.144;2022-07-01T10:33:49;36.50;70.60
45619;DHT22;31343;47.520;19.144;2022-07-01T10:36:30;36.40;70.10
45619;DHT22;31343;47.520;19.144;2022-07-01T10:44:11;37.40;67.70
45619;DHT22;31343;47.520;19.144;2022-07-01T10:49:12;38.00;67.10
45619;DHT22;31343;47.520;19.144;2022-07-01T10:51:58;38.10;66.30
45619;DHT22;31343;47.520;19.144;2022-07-01T11:00:41;37.30;67.10
45619;DHT22;31343;47.520;19.144;2022-07-01T11:02:41;37.20;66.60
45619;DHT22;31343;47.520;19.144;2022-07-01T11:05:11;37.50;65.90
45619;DHT22;31343;47.520;19.144;2022-07-01T11:07:45;38.00;64.40
45619;DHT22;31343;47.520;19.144;2022-07-01T11:10:13;37.80;65.30
45619;DHT22;31343;47.520;19.144;2022-07-01T11:12:41;38.00;64.50
45619;DHT22;31343;47.520;19.144;2022-07-01T11:15:10;37.90;64.80
45619;DHT22;31343;47.520;19.144;2022-07-01T11:17:44;38.10;64.60
45619;DHT22;31343;47.520;19.144;2022-07-01T11:20:11;38.70;63.60
45619;DHT22;31343;47.520;19.144;2022-07-01T11:22:36;39.20;63.70
45619;DHT22;31343;47.520;19.144;2022-07-01T11:25:05;39.60;62.50
45619;DHT22;31343;47.520;19.144;2022-07-01T11:27:32;38.70;62.40
45619;DHT22;31343;47.520;19.144;2022-07-01T11:30:01;38.10;62.00
45619;DHT22;31343;47.520;19.144;2022-07-01T11:32:34;38.50;62.20
45619;DHT22;31343;47.520;19.144;2022-07-01T11:35:03;38.90;62.80
45619;DHT22;31343;47.520;19.144;2022-07-01T11:37:49;38.80;62.80
45619;DHT22;31343;47.520;19.144;2022-07-01T11:40:34;38.00;63.00
45619;DHT22;31343;47.520;19.144;2022-07-01T11:42:59;37.50;64.00
45619;DHT22;31343;47.520;19.144;2022-07-01T11:45:26;38.30;63.20
45619;DHT22;31343;47.520;19.144;2022-07-01T11:47:52;38.70;62.40
45619;DHT22;31343;47.520;19.144;2022-07-01T11:50:19;38.10;61.50
45619;DHT22;31343;47.520;19.144;2022-07-01T11:52:45;38.10;62.40
45619;DHT22;31343;47.520;19.144;2022-07-01T11:55:11;38.60;61.50
45619;DHT22;31343;47.520;19.144;2022-07-01T11:57:37;38.60;62.40
45619;DHT22;31343;47.520;19.144;2022-07-01T12:00:11;38.70;61.70
45619;DHT22;31343;47.520;19.144;2022-07-01T12:02:38;38.70;60.50
45619;DHT22;31343;47.520;19.144;2022-07-01T12:05:04;39.00;60.50
45619;DHT22;31343;47.520;19.144;2022-07-01T12:07:30;38.60;60.30
45619;DHT22;31343;47.520;19.144;2022-07-01T12:09:57;38.50;61.00
45619;DHT22;31343;47.520;19.144;2022-07-01T12:12:24;38.80;60.40
45619;DHT22;31343;47.520;19.144;2022-07-01T12:14:55;39.20;59.90
45619;DHT22;31343;47.520;19.144;2022-07-01T12:17:21;39.80;59.40
45619;DHT22;31343;47.520;19.144;2022-07-01T12:19:48;39.60;59.00
45619;DHT22;31343;47.520;19.144;2022-07-01T12:22:19;39.60;59.00
45619;DHT22;31343;47.520;19.144;2022-07-01T12:24:48;39.60;59.20
45619;DHT22;31343;47.520;19.144;2022-07-01T12:27:14;39.60;58.80
45619;DHT22;31343;47.520;19.144;2022-07-01T12:32:11;38.60;59.40
45619;DHT22;31343;47.520;19.144;2022-07-01T12:37:02;37.30;61.00
45619;DHT22;31343;47.520;19.144;2022-07-01T12:39:28;37.40;61.50
45619;DHT22;31343;47.520;19.144;2022-07-01T12:41:54;37.90;61.40
45619;DHT22;31343;47.520;19.144;2022-07-01T12:44:26;38.60;60.50
45619;DHT22;31343;47.520;19.144;2022-07-01T12:46:54;39.30;59.60
45619;DHT22;31343;47.520;19.144;2022-07-01T12:49:24;39.30;59.30
45619;DHT22;31343;47.520;19.144;2022-07-01T12:51:51;39.60;58.00
45619;DHT22;31343;47.520;19.144;2022-07-01T12:54:33;39.40;57.80
45619;DHT22;31343;47.520;19.144;2022-07-01T12:57:00;38.90;58.80
45619;DHT22;31343;47.520;19.144;2022-07-01T12:59:26;39.00;58.50
45619;DHT22;31343;47.520;19.144;2022-07-01T13:01:52;38.90;58.30
45619;DHT22;31343;47.520;19.144;2022-07-01T13:04:26;38.90;57.90
45619;DHT22;31343;47.520;19.144;2022-07-01T13:06:51;38.90;57.60
45619;DHT22;31343;47.520;19.144;2022-07-01T13:09:17;39.00;58.30
45619;DHT22;31343;47.520;19.144;2022-07-01T13:11:43;38.90;57.70
45619;DHT22;31343;47.520;19.144;2022-07-01T13:14:09;38.90;57.90
45619;DHT22;31343;47.520;19.144;2022-07-01T13:16:35;38.50;57.30
45619;DHT22;31343;47.520;19.144;2022-07-01T13:19:00;38.10;57.50
45619;DHT22;31343;47.520;19.144;2022-07-01T13:21:26;37.80;57.70
45619;DHT22;31343;47.520;19.144;2022-07-01T13:23:52;37.80;58.40
45619;DHT22;31343;47.520;19.144;2022-07-01T13:26:17;37.70;58.40
45619;DHT22;31343;47.520;19.144;2022-07-01T13:28:43;37.60;57.60
45619;DHT22;31343;47.520;19.144;2022-07-01T13:31:09;37.50;58.80
45619;DHT22;31343;47.520;19.144;2022-07-01T13:33:34;37.50;57.10
45619;DHT22;31343;47.520;19.144;2022-07-01T13:36:00;37.30;57.80
45619;DHT22;31343;47.520;19.144;2022-07-01T13:38:26;37.30;58.30
45619;DHT22;31343;47.520;19.144;2022-07-01T13:40:51;37.50;57.80
45619;DHT22;31343;47.520;19.144;2022-07-01T13:43:17;37.40;56.80
45619;DHT22;31343;47.520;19.144;2022-07-01T13:45:45;37.30;57.60
45619;DHT22;31343;47.520;19.144;2022-07-01T13:48:10;37.30;58.20
45619;DHT22;31343;47.520;19.144;2022-07-01T13:50:36;37.00;58.80
45619;DHT22;31343;47.520;19.144;2022-07-01T13:53:02;37.10;58.60
45619;DHT22;31343;47.520;19.144;2022-07-01T13:55:27;37.30;59.10
45619;DHT22;31343;47.520;19.144;2022-07-01T13:57:53;37.30;57.60
45619;DHT22;31343;47.520;19.144;2022-07-01T14:00:19;37.30;57.10
45619;DHT22;31343;47.520;19.144;2022-07-01T14:02:45;37.20;55.10
45619;DHT22;31343;47.520;19.144;2022-07-01T14:05:11;36.90;56.20
45619;DHT22;31343;47.520;19.144;2022-07-01T14:07:37;36.80;56.60
45619;DHT22;31343;47.520;19.144;2022-07-01T14:10:03;36.90;56.70
45619;DHT22;31343;47.520;19.144;2022-07-01T14:12:29;36.90;56.60
45619;DHT22;31343;47.520;19.144;2022-07-01T14:14:56;36.80;57.20
45619;DHT22;31343;47.520;19.144;2022-07-01T14:17:22;36.90;57.90
45619;DHT22;31343;47.520;19.144;2022-07-01T14:19:47;36.90;58.20
45619;DHT22;31343;47.520;19.144;2022-07-01T14:22:13;37.00;58.10
45619;DHT22;31343;47.520;19.144;2022-07-01T14:24:39;36.90;57.80
45619;DHT22;31343;47.520;19.144;2022-07-01T14:27:05;37.00;57.30
45619;DHT22;31343;47.520;19.144;2022-07-01T14:29:30;37.00;57.00
45619;DHT22;31343;47.520;19.144;2022-07-01T14:31:56;37.10;56.90
45619;DHT22;31343;47.520;19.144;2022-07-01T14:34:25;37.20;56.80
45619;DHT22;31343;47.520;19.144;2022-07-01T14:36:50;37.20;56.00
45619;DHT22;31343;47.520;19.144;2022-07-01T14:39:16;37.30;56.10
45619;DHT22;31343;47.520;19.144;2022-07-01T14:41:42;37.10;55.80
45619;DHT22;31343;47.520;19.144;2022-07-01T14:44:07;37.00;57.20
45619;DHT22;31343;47.520;19.144;2022-07-01T14:46:33;37.20;56.80
45619;DHT22;31343;47.520;19.144;2022-07-01T14:48:59;37.40;56.90
45619;DHT22;31343;47.520;19.144;2022-07-01T14:51:25;37.50;56.50
45619;DHT22;31343;47.520;19.144;2022-07-01T14:53:51;37.50;56.70
45619;DHT22;31343;47.520;19.144;2022-07-01T14:56:17;37.40;55.90
45619;DHT22;31343;47.520;19.144;2022-07-01T14:58:43;37.40;56.50
45619;DHT22;31343;47.520;19.144;2022-07-01T15:01:09;37.20;56.40
45619;DHT22;31343;47.520;19.144;2022-07-01T15:03:36;37.20;56.50
45619;DHT22;31343;47.520;19.144;2022-07-01T15:06:02;37.00;56.30
45619;DHT22;31343;47.520;19.144;2022-07-01T15:08:28;36.80;56.50
45619;DHT22;31343;47.520;19.144;2022-07-01T15:10:53;36.90;57.00
45619;DHT22;31343;47.520;19.144;2022-07-01T15:13:29;37.00;57.60
45619;DHT22;31343;47.520;19.144;2022-07-01T15:15:56;37.10;57.10
45619;DHT22;31343;47.520;19.144;2022-07-01T15:18:22;37.00;57.00
45619;DHT22;31343;47.520;19.144;2022-07-01T15:20:47;36.90;57.10
45619;DHT22;31343;47.520;19.144;2022-07-01T15:23:13;36.90;57.50
45619;DHT22;31343;47.520;19.144;2022-07-01T15:25:39;36.90;57.00
45619;DHT22;31343;47.520;19.144;2022-07-01T15:28:05;36.80;57.50
45619;DHT22;31343;47.520;19.144;2022-07-01T15:30:30;36.80;57.30
45619;DHT22;31343;47.520;19.144;2022-07-01T15:32:56;36.80;57.50
45619;DHT22;31343;47.520;19.144;2022-07-01T15:35:22;36.80;57.50
45619;DHT22;31343;47.520;19.144;2022-07-01T15:37:48;36.70;57.40
45619;DHT22;31343;47.520;19.144;2022-07-01T15:40:14;36.70;56.70